Impacts METAR Board
IDs:

KSLC - Salt Lake City Intl, UT, US

Updated at: 2100 UTC 01 Mar 2021
Potential Impact None Slight Moderate High
Time 01/09Z 01/10Z 01/11Z 01/12Z 01/13Z 01/14Z 01/15Z 01/16Z 01/17Z 01/18Z 01/19Z 01/20Z 01/21Z
Temp25 25 25 25 25 24 27 30 33 36 39 42 44
Dewpt12 15 12 14 12 14 15 16 14 12 15 15 13
Altim30.42 30.40 30.40 30.39 30.38 30.39 30.39 30.40 30.40 30.39 30.38 30.36 30.33
VIS10 10 10 10 10 10 10 10 10 10 10 10 10
CIG-- -- -- -- -- -- -- -- -- -- -- -- --
CoverFEWFEWFEWCLRCLRCLRCLRCLRCLRCLRCLRCLRCLR
FltCatVFRVFRVFRVFRVFRVFRVFRVFRVFRVFRVFRVFRVFR
WX--------------------------
WDir160150140150130130140160001800120
WSpd5 6 6 6 5 6 6 7 0 5 5 4 5
WGst-- -- -- -- -- -- -- -- -- -- -- -- --
Raw hourly METARs
KSLC 010854Z 16005KT 10SM FEW200 M04/M11 A3042 RMK AO2 SLP318 T10391111 53003 $
KSLC 010954Z 15006KT 10SM FEW200 M04/M09 A3040 RMK AO2 SLP312 T10391094 $
KSLC 011054Z 14006KT 10SM FEW200 M04/M11 A3040 RMK AO2 SLP310 T10391111 $
KSLC 011154Z 15006KT 10SM CLR M04/M10 A3039 RMK AO2 SLP309 T10391100 11022 21044 56006 $
KSLC 011254Z 13005KT 10SM CLR M04/M11 A3038 RMK AO2 SLP307 T10391111 $
KSLC 011354Z 13006KT 10SM CLR M04/M10 A3039 RMK AO2 SLP312 T10441100
KSLC 011454Z 14006KT 10SM CLR M03/M09 A3039 RMK AO2 SLP312 T10281094 55000
KSLC 011554Z 16007KT 10SM CLR M01/M09 A3040 RMK AO2 SLP314 T10111089
KSLC 011654Z 00000KT 10SM CLR 01/M10 A3040 RMK AO2 SLP310 T00061100
KSLC 011754Z VRB05KT 10SM CLR 02/M11 A3039 RMK AO2 SLP305 T00221111 10028 21044 58002
KSLC 011854Z 18005KT 10SM CLR 04/M09 A3038 RMK AO2 SLP302 T00391094
KSLC 011954Z VRB04KT 10SM CLR 06/M09 A3036 RMK AO2 SLP290 T00561094
KSLC 012054Z 12005KT 10SM CLR 07/M11 A3033 RMK AO2 SLP281 T00671106 58016



Page loaded:  21:39 UTC  |   01:39 PM Pacific  |   02:39 PM Mountain  |   03:39 PM Central  |   04:39 PM Eastern

 

ADVISORIES

FORECASTS

FORECASTS

OBSERVATIONS

USER TOOLS

ABOUT US